sensor_id;sensor_type;location;lat;lon;timestamp;P1;durP1;ratioP1;P2;durP2;ratioP2
21089;SDS011;10703;51.020;6.128;2023-05-07T00:01:17;15.40;;;9.90;;
21089;SDS011;10703;51.020;6.128;2023-05-07T00:03:45;12.37;;;10.03;;
21089;SDS011;10703;51.020;6.128;2023-05-07T00:06:12;17.53;;;10.53;;
21089;SDS011;10703;51.020;6.128;2023-05-07T00:08:39;13.77;;;10.80;;
21089;SDS011;10703;51.020;6.128;2023-05-07T00:11:05;15.93;;;10.67;;
21089;SDS011;10703;51.020;6.128;2023-05-07T00:13:32;16.13;;;10.77;;
21089;SDS011;10703;51.020;6.128;2023-05-07T00:16:01;18.70;;;11.53;;
21089;SDS011;10703;51.020;6.128;2023-05-07T00:18:28;11.77;;;10.40;;
21089;SDS011;10703;51.020;6.128;2023-05-07T00:20:55;16.47;;;11.20;;
21089;SDS011;10703;51.020;6.128;2023-05-07T00:23:22;18.00;;;11.83;;
21089;SDS011;10703;51.020;6.128;2023-05-07T00:25:49;17.83;;;12.23;;
21089;SDS011;10703;51.020;6.128;2023-05-07T00:28:15;22.70;;;12.90;;
21089;SDS011;10703;51.020;6.128;2023-05-07T00:30:42;21.50;;;12.67;;
21089;SDS011;10703;51.020;6.128;2023-05-07T00:33:08;22.53;;;15.27;;
21089;SDS011;10703;51.020;6.128;2023-05-07T00:35:35;20.93;;;14.27;;
21089;SDS011;10703;51.020;6.128;2023-05-07T00:38:02;26.20;;;15.97;;
21089;SDS011;10703;51.020;6.128;2023-05-07T00:40:28;26.50;;;15.17;;
21089;SDS011;10703;51.020;6.128;2023-05-07T00:42:55;26.83;;;16.67;;
21089;SDS011;10703;51.020;6.128;2023-05-07T00:45:26;25.27;;;17.03;;
21089;SDS011;10703;51.020;6.128;2023-05-07T00:47:57;28.40;;;18.07;;
21089;SDS011;10703;51.020;6.128;2023-05-07T00:50:26;32.07;;;20.97;;
21089;SDS011;10703;51.020;6.128;2023-05-07T00:52:53;37.30;;;21.63;;
21089;SDS011;10703;51.020;6.128;2023-05-07T00:55:21;32.93;;;21.40;;
21089;SDS011;10703;51.020;6.128;2023-05-07T00:57:49;37.13;;;23.30;;
21089;SDS011;10703;51.020;6.128;2023-05-07T01:00:16;36.87;;;22.70;;
21089;SDS011;10703;51.020;6.128;2023-05-07T01:02:44;39.63;;;24.33;;
21089;SDS011;10703;51.020;6.128;2023-05-07T01:05:11;41.17;;;24.27;;
21089;SDS011;10703;51.020;6.128;2023-05-07T01:07:40;45.50;;;26.60;;
21089;SDS011;10703;51.020;6.128;2023-05-07T01:10:08;40.77;;;26.30;;
21089;SDS011;10703;51.020;6.128;2023-05-07T01:12:36;42.90;;;26.53;;
21089;SDS011;10703;51.020;6.128;2023-05-07T01:15:04;41.67;;;26.30;;
21089;SDS011;10703;51.020;6.128;2023-05-07T01:17:33;42.87;;;28.53;;
21089;SDS011;10703;51.020;6.128;2023-05-07T01:20:05;43.03;;;27.50;;
21089;SDS011;10703;51.020;6.128;2023-05-07T01:22:41;44.30;;;27.57;;
21089;SDS011;10703;51.020;6.128;2023-05-07T01:25:09;49.60;;;30.10;;
21089;SDS011;10703;51.020;6.128;2023-05-07T01:27:36;51.20;;;30.83;;
21089;SDS011;10703;51.020;6.128;2023-05-07T01:30:03;57.70;;;30.63;;
21089;SDS011;10703;51.020;6.128;2023-05-07T01:32:46;49.97;;;31.63;;
21089;SDS011;10703;51.020;6.128;2023-05-07T01:35:19;56.57;;;31.67;;
21089;SDS011;10703;51.020;6.128;2023-05-07T01:37:47;53.83;;;32.67;;
21089;SDS011;10703;51.020;6.128;2023-05-07T01:40:14;56.87;;;33.30;;
21089;SDS011;10703;51.020;6.128;2023-05-07T01:42:41;63.30;;;33.70;;
21089;SDS011;10703;51.020;6.128;2023-05-07T01:45:09;57.53;;;32.00;;
21089;SDS011;10703;51.020;6.128;2023-05-07T01:47:36;60.30;;;32.23;;
21089;SDS011;10703;51.020;6.128;2023-05-07T01:50:05;56.80;;;32.53;;
21089;SDS011;10703;51.020;6.128;2023-05-07T01:52:34;57.03;;;32.33;;
21089;SDS011;10703;51.020;6.128;2023-05-07T01:55:03;54.53;;;33.57;;
21089;SDS011;10703;51.020;6.128;2023-05-07T01:57:31;51.03;;;32.20;;
21089;SDS011;10703;51.020;6.128;2023-05-07T01:59:57;54.73;;;32.33;;
21089;SDS011;10703;51.020;6.128;2023-05-07T02:02:24;56.63;;;32.43;;
21089;SDS011;10703;51.020;6.128;2023-05-07T02:04:51;54.77;;;32.47;;
21089;SDS011;10703;51.020;6.128;2023-05-07T02:07:18;58.23;;;34.03;;
21089;SDS011;10703;51.020;6.128;2023-05-07T02:09:44;55.77;;;32.37;;
21089;SDS011;10703;51.020;6.128;2023-05-07T02:12:11;60.40;;;34.27;;
21089;SDS011;10703;51.020;6.128;2023-05-07T02:14:38;59.53;;;33.70;;
21089;SDS011;10703;51.020;6.128;2023-05-07T02:17:04;55.60;;;31.70;;
21089;SDS011;10703;51.020;6.128;2023-05-07T02:19:31;58.93;;;34.57;;
21089;SDS011;10703;51.020;6.128;2023-05-07T02:21:57;59.37;;;32.90;;
21089;SDS011;10703;51.020;6.128;2023-05-07T02:24:24;54.80;;;32.60;;
21089;SDS011;10703;51.020;6.128;2023-05-07T02:26:50;62.30;;;34.00;;
21089;SDS011;10703;51.020;6.128;2023-05-07T02:29:17;59.50;;;34.27;;
21089;SDS011;10703;51.020;6.128;2023-05-07T02:31:44;57.70;;;33.43;;
21089;SDS011;10703;51.020;6.128;2023-05-07T02:34:10;63.17;;;35.17;;
21089;SDS011;10703;51.020;6.128;2023-05-07T02:36:37;60.63;;;34.53;;
21089;SDS011;10703;51.020;6.128;2023-05-07T02:39:03;57.63;;;34.23;;
21089;SDS011;10703;51.020;6.128;2023-05-07T02:41:30;65.30;;;35.13;;
21089;SDS011;10703;51.020;6.128;2023-05-07T02:43:56;64.47;;;34.57;;
21089;SDS011;10703;51.020;6.128;2023-05-07T02:46:23;63.57;;;35.10;;
21089;SDS011;10703;51.020;6.128;2023-05-07T02:48:50;66.50;;;35.87;;
21089;SDS011;10703;51.020;6.128;2023-05-07T02:51:20;65.53;;;35.37;;
21089;SDS011;10703;51.020;6.128;2023-05-07T02:53:50;65.17;;;36.83;;
21089;SDS011;10703;51.020;6.128;2023-05-07T02:56:17;66.90;;;35.30;;
21089;SDS011;10703;51.020;6.128;2023-05-07T02:58:43;73.07;;;35.60;;
21089;SDS011;10703;51.020;6.128;2023-05-07T03:01:10;59.00;;;36.73;;
21089;SDS011;10703;51.020;6.128;2023-05-07T03:03:37;64.23;;;36.37;;
21089;SDS011;10703;51.020;6.128;2023-05-07T03:06:04;70.37;;;35.27;;
21089;SDS011;10703;51.020;6.128;2023-05-07T03:08:31;63.27;;;35.23;;
21089;SDS011;10703;51.020;6.128;2023-05-07T03:10:58;67.80;;;34.20;;
21089;SDS011;10703;51.020;6.128;2023-05-07T03:13:24;64.97;;;33.17;;
21089;SDS011;10703;51.020;6.128;2023-05-07T03:15:51;60.93;;;34.33;;
21089;SDS011;10703;51.020;6.128;2023-05-07T03:18:18;64.20;;;33.67;;
21089;SDS011;10703;51.020;6.128;2023-05-07T03:20:45;66.30;;;35.70;;
21089;SDS011;10703;51.020;6.128;2023-05-07T03:23:12;63.77;;;34.10;;
21089;SDS011;10703;51.020;6.128;2023-05-07T03:25:38;64.03;;;33.80;;
21089;SDS011;10703;51.020;6.128;2023-05-07T03:28:05;60.60;;;33.70;;
21089;SDS011;10703;51.020;6.128;2023-05-07T03:30:31;60.03;;;32.30;;
21089;SDS011;10703;51.020;6.128;2023-05-07T03:32:58;52.43;;;29.70;;
21089;SDS011;10703;51.020;6.128;2023-05-07T03:35:25;52.63;;;28.10;;
21089;SDS011;10703;51.020;6.128;2023-05-07T03:37:52;47.83;;;28.13;;
21089;SDS011;10703;51.020;6.128;2023-05-07T03:40:19;45.33;;;27.27;;
21089;SDS011;10703;51.020;6.128;2023-05-07T03:42:45;42.40;;;25.20;;
21089;SDS011;10703;51.020;6.128;2023-05-07T03:45:12;41.87;;;24.73;;
21089;SDS011;10703;51.020;6.128;2023-05-07T03:47:38;43.00;;;23.60;;
21089;SDS011;10703;51.020;6.128;2023-05-07T03:50:05;36.63;;;23.33;;
21089;SDS011;10703;51.020;6.128;2023-05-07T03:52:32;37.90;;;22.53;;
21089;SDS011;10703;51.020;6.128;2023-05-07T03:54:58;36.67;;;21.00;;
21089;SDS011;10703;51.020;6.128;2023-05-07T03:57:25;34.50;;;22.70;;
21089;SDS011;10703;51.020;6.128;2023-05-07T03:59:52;40.27;;;22.23;;
21089;SDS011;10703;51.020;6.128;2023-05-07T04:02:18;32.30;;;20.60;;
21089;SDS011;10703;51.020;6.128;2023-05-07T04:04:45;34.73;;;20.70;;
21089;SDS011;10703;51.020;6.128;2023-05-07T04:07:14;34.87;;;20.97;;
21089;SDS011;10703;51.020;6.128;2023-05-07T04:09:41;34.73;;;20.77;;
21089;SDS011;10703;51.020;6.128;2023-05-07T04:12:07;36.70;;;22.10;;
21089;SDS011;10703;51.020;6.128;2023-05-07T04:14:34;31.10;;;19.80;;
21089;SDS011;10703;51.020;6.128;2023-05-07T04:17:00;30.83;;;19.93;;
21089;SDS011;10703;51.020;6.128;2023-05-07T04:19:28;33.43;;;19.87;;
21089;SDS011;10703;51.020;6.128;2023-05-07T04:21:55;30.30;;;19.60;;
21089;SDS011;10703;51.020;6.128;2023-05-07T04:24:21;34.10;;;19.37;;
21089;SDS011;10703;51.020;6.128;2023-05-07T04:26:48;27.30;;;18.90;;
21089;SDS011;10703;51.020;6.128;2023-05-07T04:29:14;33.90;;;19.50;;
21089;SDS011;10703;51.020;6.128;2023-05-07T04:31:41;31.03;;;20.77;;
21089;SDS011;10703;51.020;6.128;2023-05-07T04:34:10;32.90;;;20.33;;
21089;SDS011;10703;51.020;6.128;2023-05-07T04:36:38;27.63;;;19.73;;
21089;SDS011;10703;51.020;6.128;2023-05-07T04:39:04;28.57;;;18.80;;
21089;SDS011;10703;51.020;6.128;2023-05-07T04:41:31;31.10;;;19.10;;
21089;SDS011;10703;51.020;6.128;2023-05-07T04:43:59;26.20;;;16.90;;
21089;SDS011;10703;51.020;6.128;2023-05-07T04:46:25;27.30;;;17.43;;
21089;SDS011;10703;51.020;6.128;2023-05-07T04:48:52;23.33;;;17.70;;
21089;SDS011;10703;51.020;6.128;2023-05-07T04:51:19;32.33;;;20.50;;
21089;SDS011;10703;51.020;6.128;2023-05-07T04:53:45;28.30;;;18.73;;
21089;SDS011;10703;51.020;6.128;2023-05-07T04:56:12;40.30;;;23.50;;
21089;SDS011;10703;51.020;6.128;2023-05-07T04:58:38;40.77;;;24.87;;
21089;SDS011;10703;51.020;6.128;2023-05-07T05:01:05;35.37;;;23.50;;
21089;SDS011;10703;51.020;6.128;2023-05-07T05:03:32;33.93;;;22.23;;
21089;SDS011;10703;51.020;6.128;2023-05-07T05:05:58;34.30;;;21.97;;
21089;SDS011;10703;51.020;6.128;2023-05-07T05:08:25;36.93;;;22.67;;
21089;SDS011;10703;51.020;6.128;2023-05-07T05:10:52;36.97;;;23.17;;
21089;SDS011;10703;51.020;6.128;2023-05-07T05:13:19;33.33;;;21.93;;
21089;SDS011;10703;51.020;6.128;2023-05-07T05:15:46;31.03;;;22.07;;
21089;SDS011;10703;51.020;6.128;2023-05-07T05:18:12;31.63;;;22.70;;
21089;SDS011;10703;51.020;6.128;2023-05-07T05:20:39;30.50;;;20.50;;
21089;SDS011;10703;51.020;6.128;2023-05-07T05:23:05;29.43;;;21.00;;
21089;SDS011;10703;51.020;6.128;2023-05-07T05:25:33;29.80;;;20.27;;
21089;SDS011;10703;51.020;6.128;2023-05-07T05:27:59;33.10;;;20.50;;
21089;SDS011;10703;51.020;6.128;2023-05-07T05:30:27;33.80;;;20.13;;
21089;SDS011;10703;51.020;6.128;2023-05-07T05:32:53;31.33;;;20.50;;
21089;SDS011;10703;51.020;6.128;2023-05-07T05:35:20;28.47;;;19.63;;
21089;SDS011;10703;51.020;6.128;2023-05-07T05:37:46;28.93;;;18.27;;
21089;SDS011;10703;51.020;6.128;2023-05-07T05:40:14;24.83;;;17.40;;
21089;SDS011;10703;51.020;6.128;2023-05-07T05:42:40;21.43;;;16.30;;
21089;SDS011;10703;51.020;6.128;2023-05-07T05:45:07;19.57;;;14.90;;
21089;SDS011;10703;51.020;6.128;2023-05-07T05:47:34;16.27;;;13.73;;
21089;SDS011;10703;51.020;6.128;2023-05-07T05:50:01;16.17;;;12.83;;
21089;SDS011;10703;51.020;6.128;2023-05-07T05:52:27;14.27;;;12.73;;
21089;SDS011;10703;51.020;6.128;2023-05-07T05:54:54;11.80;;;10.60;;
21089;SDS011;10703;51.020;6.128;2023-05-07T05:57:20;12.70;;;9.37;;
21089;SDS011;10703;51.020;6.128;2023-05-07T05:59:47;11.90;;;8.90;;
21089;SDS011;10703;51.020;6.128;2023-05-07T06:02:14;12.73;;;8.10;;
21089;SDS011;10703;51.020;6.128;2023-05-07T06:04:40;8.80;;;7.60;;
21089;SDS011;10703;51.020;6.128;2023-05-07T06:07:08;8.30;;;7.50;;
21089;SDS011;10703;51.020;6.128;2023-05-07T06:09:35;9.23;;;7.20;;
21089;SDS011;10703;51.020;6.128;2023-05-07T06:12:02;8.10;;;6.90;;
21089;SDS011;10703;51.020;6.128;2023-05-07T06:14:28;9.00;;;6.70;;
21089;SDS011;10703;51.020;6.128;2023-05-07T06:16:55;9.20;;;6.90;;
21089;SDS011;10703;51.020;6.128;2023-05-07T06:19:23;7.07;;;6.43;;
21089;SDS011;10703;51.020;6.128;2023-05-07T06:21:50;9.83;;;7.17;;
21089;SDS011;10703;51.020;6.128;2023-05-07T06:24:16;9.57;;;6.40;;
21089;SDS011;10703;51.020;6.128;2023-05-07T06:26:43;7.47;;;6.67;;
21089;SDS011;10703;51.020;6.128;2023-05-07T06:29:09;9.97;;;6.57;;
21089;SDS011;10703;51.020;6.128;2023-05-07T06:31:36;7.20;;;5.90;;
21089;SDS011;10703;51.020;6.128;2023-05-07T06:34:03;7.93;;;6.60;;
21089;SDS011;10703;51.020;6.128;2023-05-07T06:36:29;9.00;;;6.40;;
21089;SDS011;10703;51.020;6.128;2023-05-07T06:38:56;13.63;;;6.30;;
21089;SDS011;10703;51.020;6.128;2023-05-07T06:41:23;6.43;;;5.80;;
21089;SDS011;10703;51.020;6.128;2023-05-07T06:43:49;11.97;;;6.30;;
21089;SDS011;10703;51.020;6.128;2023-05-07T06:46:16;12.30;;;6.23;;
21089;SDS011;10703;51.020;6.128;2023-05-07T06:48:43;6.40;;;5.80;;
21089;SDS011;10703;51.020;6.128;2023-05-07T06:51:09;6.77;;;6.07;;
21089;SDS011;10703;51.020;6.128;2023-05-07T06:53:36;6.67;;;5.97;;
21089;SDS011;10703;51.020;6.128;2023-05-07T06:56:02;8.97;;;6.23;;
21089;SDS011;10703;51.020;6.128;2023-05-07T06:58:29;7.73;;;5.87;;
21089;SDS011;10703;51.020;6.128;2023-05-07T07:00:56;16.20;;;7.90;;
21089;SDS011;10703;51.020;6.128;2023-05-07T07:03:22;9.27;;;6.00;;
21089;SDS011;10703;51.020;6.128;2023-05-07T07:05:52;7.63;;;6.20;;
21089;SDS011;10703;51.020;6.128;2023-05-07T07:08:19;7.87;;;5.63;;
21089;SDS011;10703;51.020;6.128;2023-05-07T07:10:47;6.33;;;5.70;;
21089;SDS011;10703;51.020;6.128;2023-05-07T07:13:14;8.53;;;5.73;;
21089;SDS011;10703;51.020;6.128;2023-05-07T07:15:40;8.13;;;5.50;;
21089;SDS011;10703;51.020;6.128;2023-05-07T07:18:07;6.63;;;5.43;;
21089;SDS011;10703;51.020;6.128;2023-05-07T07:20:34;8.00;;;5.33;;
21089;SDS011;10703;51.020;6.128;2023-05-07T07:23:00;7.53;;;5.80;;
21089;SDS011;10703;51.020;6.128;2023-05-07T07:25:27;6.43;;;5.40;;
21089;SDS011;10703;51.020;6.128;2023-05-07T07:27:54;7.20;;;5.60;;
21089;SDS011;10703;51.020;6.128;2023-05-07T07:30:20;5.60;;;4.97;;
21089;SDS011;10703;51.020;6.128;2023-05-07T07:32:47;7.45;;;5.25;;
21089;SDS011;10703;51.020;6.128;2023-05-07T07:35:13;6.00;;;5.43;;
21089;SDS011;10703;51.020;6.128;2023-05-07T07:37:40;6.40;;;5.22;;
21089;SDS011;10703;51.020;6.128;2023-05-07T07:40:07;7.47;;;5.28;;
21089;SDS011;10703;51.020;6.128;2023-05-07T07:42:34;5.80;;;4.72;;
21089;SDS011;10703;51.020;6.128;2023-05-07T07:45:01;7.78;;;5.03;;
21089;SDS011;10703;51.020;6.128;2023-05-07T07:47:27;8.90;;;5.13;;
21089;SDS011;10703;51.020;6.128;2023-05-07T07:49:54;7.07;;;4.90;;
21089;SDS011;10703;51.020;6.128;2023-05-07T07:52:20;9.75;;;5.30;;
21089;SDS011;10703;51.020;6.128;2023-05-07T07:54:47;6.47;;;5.40;;
21089;SDS011;10703;51.020;6.128;2023-05-07T07:57:13;9.43;;;5.30;;
21089;SDS011;10703;51.020;6.128;2023-05-07T07:59:40;7.47;;;4.60;;
21089;SDS011;10703;51.020;6.128;2023-05-07T08:02:09;5.32;;;4.82;;
21089;SDS011;10703;51.020;6.128;2023-05-07T08:04:35;7.63;;;5.00;;
21089;SDS011;10703;51.020;6.128;2023-05-07T08:07:03;9.55;;;4.70;;
21089;SDS011;10703;51.020;6.128;2023-05-07T08:09:30;6.15;;;4.70;;
21089;SDS011;10703;51.020;6.128;2023-05-07T08:11:56;5.43;;;4.70;;
21089;SDS011;10703;51.020;6.128;2023-05-07T08:14:23;7.53;;;4.55;;
21089;SDS011;10703;51.020;6.128;2023-05-07T08:16:50;4.93;;;4.40;;
21089;SDS011;10703;51.020;6.128;2023-05-07T08:19:16;7.78;;;4.55;;
21089;SDS011;10703;51.020;6.128;2023-05-07T08:21:43;5.00;;;4.30;;
21089;SDS011;10703;51.020;6.128;2023-05-07T08:24:09;7.53;;;4.88;;
21089;SDS011;10703;51.020;6.128;2023-05-07T08:26:36;5.93;;;4.85;;
21089;SDS011;10703;51.020;6.128;2023-05-07T08:29:05;6.38;;;5.28;;
21089;SDS011;10703;51.020;6.128;2023-05-07T08:31:31;6.88;;;5.18;;
21089;SDS011;10703;51.020;6.128;2023-05-07T08:33:58;7.32;;;5.38;;
21089;SDS011;10703;51.020;6.128;2023-05-07T08:36:25;5.97;;;5.25;;
21089;SDS011;10703;51.020;6.128;2023-05-07T08:38:52;5.85;;;5.20;;
21089;SDS011;10703;51.020;6.128;2023-05-07T08:41:19;7.65;;;5.15;;
21089;SDS011;10703;51.020;6.128;2023-05-07T08:43:47;7.07;;;4.97;;
21089;SDS011;10703;51.020;6.128;2023-05-07T08:46:17;5.60;;;5.10;;
21089;SDS011;10703;51.020;6.128;2023-05-07T08:48:47;5.50;;;4.95;;
21089;SDS011;10703;51.020;6.128;2023-05-07T08:51:16;6.50;;;5.20;;
21089;SDS011;10703;51.020;6.128;2023-05-07T08:53:44;5.57;;;5.07;;
21089;SDS011;10703;51.020;6.128;2023-05-07T08:56:11;11.70;;;5.25;;
21089;SDS011;10703;51.020;6.128;2023-05-07T08:58:38;8.18;;;5.10;;
21089;SDS011;10703;51.020;6.128;2023-05-07T09:01:08;7.20;;;5.22;;
21089;SDS011;10703;51.020;6.128;2023-05-07T09:03:37;6.15;;;4.80;;
21089;SDS011;10703;51.020;6.128;2023-05-07T09:06:04;9.30;;;5.32;;
21089;SDS011;10703;51.020;6.128;2023-05-07T09:08:34;6.47;;;5.50;;
21089;SDS011;10703;51.020;6.128;2023-05-07T09:11:01;6.57;;;5.28;;
21089;SDS011;10703;51.020;6.128;2023-05-07T09:13:28;9.18;;;5.43;;
21089;SDS011;10703;51.020;6.128;2023-05-07T09:15:55;7.05;;;5.85;;
21089;SDS011;10703;51.020;6.128;2023-05-07T09:18:25;8.32;;;6.03;;
21089;SDS011;10703;51.020;6.128;2023-05-07T09:20:52;6.03;;;5.40;;
21089;SDS011;10703;51.020;6.128;2023-05-07T09:23:19;6.25;;;5.47;;
21089;SDS011;10703;51.020;6.128;2023-05-07T09:25:46;6.30;;;5.13;;
21089;SDS011;10703;51.020;6.128;2023-05-07T09:28:13;6.90;;;5.13;;
21089;SDS011;10703;51.020;6.128;2023-05-07T09:30:39;6.20;;;5.57;;
21089;SDS011;10703;51.020;6.128;2023-05-07T09:33:06;7.20;;;5.85;;
21089;SDS011;10703;51.020;6.128;2023-05-07T09:35:33;6.32;;;5.20;;
21089;SDS011;10703;51.020;6.128;2023-05-07T09:38:00;5.30;;;4.80;;
21089;SDS011;10703;51.020;6.128;2023-05-07T09:40:30;6.75;;;4.68;;
21089;SDS011;10703;51.020;6.128;2023-05-07T09:43:01;7.80;;;4.90;;
21089;SDS011;10703;51.020;6.128;2023-05-07T09:45:36;5.95;;;4.50;;
21089;SDS011;10703;51.020;6.128;2023-05-07T09:48:04;5.20;;;4.53;;
21089;SDS011;10703;51.020;6.128;2023-05-07T09:50:35;9.60;;;5.47;;
21089;SDS011;10703;51.020;6.128;2023-05-07T09:53:04;7.30;;;5.43;;
21089;SDS011;10703;51.020;6.128;2023-05-07T09:55:33;6.57;;;5.00;;
21089;SDS011;10703;51.020;6.128;2023-05-07T09:57:59;7.90;;;5.00;;
21089;SDS011;10703;51.020;6.128;2023-05-07T10:00:28;5.18;;;4.68;;
21089;SDS011;10703;51.020;6.128;2023-05-07T10:02:56;5.28;;;4.30;;
21089;SDS011;10703;51.020;6.128;2023-05-07T10:05:24;8.02;;;5.25;;
21089;SDS011;10703;51.020;6.128;2023-05-07T10:07:52;7.32;;;5.22;;
21089;SDS011;10703;51.020;6.128;2023-05-07T10:10:20;5.95;;;5.40;;
21089;SDS011;10703;51.020;6.128;2023-05-07T10:12:47;6.55;;;5.13;;
21089;SDS011;10703;51.020;6.128;2023-05-07T10:15:15;7.15;;;4.95;;
21089;SDS011;10703;51.020;6.128;2023-05-07T10:17:42;5.18;;;4.68;;
21089;SDS011;10703;51.020;6.128;2023-05-07T10:20:11;8.13;;;5.03;;
21089;SDS011;10703;51.020;6.128;2023-05-07T10:22:38;6.75;;;5.13;;
21089;SDS011;10703;51.020;6.128;2023-05-07T10:25:20;6.38;;;5.05;;
21089;SDS011;10703;51.020;6.128;2023-05-07T10:27:51;6.20;;;5.13;;
21089;SDS011;10703;51.020;6.128;2023-05-07T10:33:04;5.75;;;4.97;;
21089;SDS011;10703;51.020;6.128;2023-05-07T10:35:38;5.32;;;4.35;;
21089;SDS011;10703;51.020;6.128;2023-05-07T10:38:08;6.15;;;4.38;;
21089;SDS011;10703;51.020;6.128;2023-05-07T10:40:35;6.03;;;4.13;;
21089;SDS011;10703;51.020;6.128;2023-05-07T10:43:03;5.00;;;4.43;;
21089;SDS011;10703;51.020;6.128;2023-05-07T10:45:34;7.30;;;4.40;;
21089;SDS011;10703;51.020;6.128;2023-05-07T10:48:08;6.13;;;4.85;;
21089;SDS011;10703;51.020;6.128;2023-05-07T10:50:44;7.32;;;4.78;;
21089;SDS011;10703;51.020;6.128;2023-05-07T10:55:44;8.45;;;4.90;;
21089;SDS011;10703;51.020;6.128;2023-05-07T10:58:23;5.82;;;4.85;;
21089;SDS011;10703;51.020;6.128;2023-05-07T11:01:01;6.43;;;4.40;;
21089;SDS011;10703;51.020;6.128;2023-05-07T11:03:28;5.47;;;4.68;;
21089;SDS011;10703;51.020;6.128;2023-05-07T11:06:08;5.40;;;4.50;;
21089;SDS011;10703;51.020;6.128;2023-05-07T11:08:57;4.60;;;4.20;;
21089;SDS011;10703;51.020;6.128;2023-05-07T11:11:58;8.02;;;4.45;;
21089;SDS011;10703;51.020;6.128;2023-05-07T11:14:42;9.00;;;4.60;;
21089;SDS011;10703;51.020;6.128;2023-05-07T11:17:10;10.45;;;4.20;;
21089;SDS011;10703;51.020;6.128;2023-05-07T11:25:01;10.70;;;4.25;;
21089;SDS011;10703;51.020;6.128;2023-05-07T11:27:32;6.97;;;4.20;;
21089;SDS011;10703;51.020;6.128;2023-05-07T11:29:59;4.60;;;3.78;;
21089;SDS011;10703;51.020;6.128;2023-05-07T11:32:29;8.43;;;3.50;;
21089;SDS011;10703;51.020;6.128;2023-05-07T11:34:58;6.40;;;3.30;;
21089;SDS011;10703;51.020;6.128;2023-05-07T11:37:26;6.68;;;3.10;;
21089;SDS011;10703;51.020;6.128;2023-05-07T11:40:04;8.88;;;4.03;;
21089;SDS011;10703;51.020;6.128;2023-05-07T11:42:37;5.28;;;3.83;;
21089;SDS011;10703;51.020;6.128;2023-05-07T11:45:05;8.80;;;4.32;;
21089;SDS011;10703;51.020;6.128;2023-05-07T11:47:33;4.50;;;3.65;;
21089;SDS011;10703;51.020;6.128;2023-05-07T11:50:04;8.75;;;3.40;;
21089;SDS011;10703;51.020;6.128;2023-05-07T11:52:32;6.55;;;3.20;;
21089;SDS011;10703;51.020;6.128;2023-05-07T11:54:59;5.40;;;3.40;;
21089;SDS011;10703;51.020;6.128;2023-05-07T11:57:27;6.43;;;2.90;;
21089;SDS011;10703;51.020;6.128;2023-05-07T11:59:58;5.68;;;3.10;;
21089;SDS011;10703;51.020;6.128;2023-05-07T12:02:31;9.52;;;3.08;;
21089;SDS011;10703;51.020;6.128;2023-05-07T12:04:59;6.32;;;2.80;;
21089;SDS011;10703;51.020;6.128;2023-05-07T12:07:26;3.63;;;2.60;;
21089;SDS011;10703;51.020;6.128;2023-05-07T12:09:53;8.55;;;3.63;;
21089;SDS011;10703;51.020;6.128;2023-05-07T12:12:20;4.05;;;2.67;;
21089;SDS011;10703;51.020;6.128;2023-05-07T12:14:46;5.72;;;3.13;;
21089;SDS011;10703;51.020;6.128;2023-05-07T12:17:14;7.40;;;3.70;;
21089;SDS011;10703;51.020;6.128;2023-05-07T12:19:41;6.40;;;3.50;;
21089;SDS011;10703;51.020;6.128;2023-05-07T12:22:09;4.30;;;3.67;;
21089;SDS011;10703;51.020;6.128;2023-05-07T12:27:10;6.80;;;4.57;;
21089;SDS011;10703;51.020;6.128;2023-05-07T12:29:37;6.75;;;4.18;;
21089;SDS011;10703;51.020;6.128;2023-05-07T12:32:12;8.82;;;4.72;;
21089;SDS011;10703;51.020;6.128;2023-05-07T12:34:41;6.07;;;4.57;;
21089;SDS011;10703;51.020;6.128;2023-05-07T12:37:13;5.65;;;4.90;;
21089;SDS011;10703;51.020;6.128;2023-05-07T12:39:49;5.00;;;4.60;;
21089;SDS011;10703;51.020;6.128;2023-05-07T12:42:32;4.33;;;3.93;;
21089;SDS011;10703;51.020;6.128;2023-05-07T12:45:11;4.40;;;4.00;;
21089;SDS011;10703;51.020;6.128;2023-05-07T12:47:43;5.27;;;4.17;;
21089;SDS011;10703;51.020;6.128;2023-05-07T12:50:10;4.87;;;4.43;;
21089;SDS011;10703;51.020;6.128;2023-05-07T12:52:38;7.40;;;4.97;;
21089;SDS011;10703;51.020;6.128;2023-05-07T12:55:05;7.17;;;4.80;;
21089;SDS011;10703;51.020;6.128;2023-05-07T12:57:39;6.70;;;5.50;;
21089;SDS011;10703;51.020;6.128;2023-05-07T13:00:07;8.57;;;5.47;;
21089;SDS011;10703;51.020;6.128;2023-05-07T13:02:38;6.43;;;5.83;;
21089;SDS011;10703;51.020;6.128;2023-05-07T13:05:06;9.73;;;6.87;;
21089;SDS011;10703;51.020;6.128;2023-05-07T13:07:34;7.73;;;6.70;;
21089;SDS011;10703;51.020;6.128;2023-05-07T13:10:01;7.10;;;6.37;;
21089;SDS011;10703;51.020;6.128;2023-05-07T13:12:27;7.00;;;6.40;;
21089;SDS011;10703;51.020;6.128;2023-05-07T13:14:54;8.27;;;6.80;;
21089;SDS011;10703;51.020;6.128;2023-05-07T13:17:20;9.17;;;6.70;;
21089;SDS011;10703;51.020;6.128;2023-05-07T13:19:47;13.17;;;7.33;;
21089;SDS011;10703;51.020;6.128;2023-05-07T13:22:14;6.00;;;5.50;;
21089;SDS011;10703;51.020;6.128;2023-05-07T13:24:40;8.73;;;5.27;;
21089;SDS011;10703;51.020;6.128;2023-05-07T13:27:08;8.17;;;5.70;;
21089;SDS011;10703;51.020;6.128;2023-05-07T13:29:35;6.17;;;5.30;;
21089;SDS011;10703;51.020;6.128;2023-05-07T13:32:02;7.00;;;5.70;;
21089;SDS011;10703;51.020;6.128;2023-05-07T13:34:28;6.80;;;5.47;;
21089;SDS011;10703;51.020;6.128;2023-05-07T13:36:55;5.67;;;5.03;;
21089;SDS011;10703;51.020;6.128;2023-05-07T13:39:22;7.50;;;5.63;;
21089;SDS011;10703;51.020;6.128;2023-05-07T13:41:48;8.50;;;6.00;;
21089;SDS011;10703;51.020;6.128;2023-05-07T13:44:15;7.70;;;5.53;;
21089;SDS011;10703;51.020;6.128;2023-05-07T13:46:42;6.43;;;5.90;;
21089;SDS011;10703;51.020;6.128;2023-05-07T13:49:08;6.90;;;6.13;;
21089;SDS011;10703;51.020;6.128;2023-05-07T13:51:37;6.20;;;5.60;;
21089;SDS011;10703;51.020;6.128;2023-05-07T13:54:03;7.30;;;6.40;;
21089;SDS011;10703;51.020;6.128;2023-05-07T13:56:30;8.07;;;6.00;;
21089;SDS011;10703;51.020;6.128;2023-05-07T13:58:58;7.13;;;6.07;;
21089;SDS011;10703;51.020;6.128;2023-05-07T14:01:26;8.63;;;5.82;;
21089;SDS011;10703;51.020;6.128;2023-05-07T14:03:53;5.82;;;5.22;;
21089;SDS011;10703;51.020;6.128;2023-05-07T14:06:20;7.78;;;5.85;;
21089;SDS011;10703;51.020;6.128;2023-05-07T14:08:47;7.97;;;5.82;;
21089;SDS011;10703;51.020;6.128;2023-05-07T14:11:14;5.90;;;5.30;;
21089;SDS011;10703;51.020;6.128;2023-05-07T14:13:40;5.63;;;4.85;;
21089;SDS011;10703;51.020;6.128;2023-05-07T14:16:07;5.80;;;4.97;;
21089;SDS011;10703;51.020;6.128;2023-05-07T14:18:33;8.23;;;5.50;;
21089;SDS011;10703;51.020;6.128;2023-05-07T14:21:04;5.93;;;5.05;;
21089;SDS011;10703;51.020;6.128;2023-05-07T14:23:32;7.95;;;5.25;;
21089;SDS011;10703;51.020;6.128;2023-05-07T14:25:58;8.57;;;5.22;;
21089;SDS011;10703;51.020;6.128;2023-05-07T14:28:25;8.40;;;4.70;;
21089;SDS011;10703;51.020;6.128;2023-05-07T14:30:52;6.22;;;5.10;;
21089;SDS011;10703;51.020;6.128;2023-05-07T14:33:18;5.43;;;4.90;;
21089;SDS011;10703;51.020;6.128;2023-05-07T14:35:45;7.15;;;4.68;;
21089;SDS011;10703;51.020;6.128;2023-05-07T14:38:14;10.50;;;4.68;;
21089;SDS011;10703;51.020;6.128;2023-05-07T14:40:41;10.73;;;5.10;;
21089;SDS011;10703;51.020;6.128;2023-05-07T14:43:08;5.90;;;4.30;;
21089;SDS011;10703;51.020;6.128;2023-05-07T14:45:34;5.47;;;4.72;;
21089;SDS011;10703;51.020;6.128;2023-05-07T14:48:01;7.15;;;4.85;;
21089;SDS011;10703;51.020;6.128;2023-05-07T14:50:28;6.50;;;4.65;;
21089;SDS011;10703;51.020;6.128;2023-05-07T14:52:55;10.20;;;4.80;;